Time;durP1;ratioP1;P1;durP2;ratioP2;P2;SDS_P1;SDS_P2;PMS_P1;PMS_P2;Temp;Humidity;BMP_temperature;BMP_pressure;BME280_temperature;BME280_humidity;BME280_pressure;Samples;Min_cycle;Max_cycle;Signal;HPM_P1;HPM_P2
2023/07/22 00:02:18;;;;;;;5.13;0.90;;;;;;;13.22;71.26;99659.50;5026729;28;20079;-76
2023/07/22 00:04:44;;;;;;;2.75;1.20;;;;;;;13.18;71.59;99653.50;5044646;28;20068;-77
2023/07/22 00:07:09;;;;;;;1.23;1.13;;;;;;;13.17;71.92;99653.56;5044627;28;20055;-77
2023/07/22 00:09:35;;;;;;;0.98;0.88;;;;;;;13.21;72.08;99668.22;5044751;28;20072;-77
2023/07/22 00:12:01;;;;;;;2.25;1.13;;;;;;;13.21;71.97;99657.78;5044437;28;20353;-77
2023/07/22 00:14:26;;;;;;;1.08;0.77;;;;;;;13.18;72.20;99653.50;5044389;28;20079;-77
2023/07/22 00:16:52;;;;;;;1.85;0.98;;;;;;;13.23;71.85;99661.19;5026447;28;20021;-75
2023/07/22 00:19:17;;;;;;;2.00;1.27;;;;;;;13.20;71.85;99650.84;5042968;28;20082;-77
2023/07/22 00:21:43;;;;;;;1.60;0.93;;;;;;;13.20;71.95;99656.94;5044303;28;20486;-75
2023/07/22 00:24:08;;;;;;;2.85;1.02;;;;;;;13.18;71.70;99642.25;5026338;28;20029;-76
2023/07/22 00:26:34;;;;;;;5.57;0.90;;;;;;;13.16;71.58;99644.06;5044063;28;20092;-75
2023/07/22 00:28:59;;;;;;;1.52;1.08;;;;;;;13.19;71.82;99654.38;5044221;28;20021;-75
2023/07/22 00:31:25;;;;;;;1.95;1.30;;;;;;;13.09;71.73;99646.00;5043940;28;20045;-76
2023/07/22 00:33:50;;;;;;;2.75;0.80;;;;;;;13.07;71.96;99643.44;5042868;28;20033;-75
2023/07/22 00:36:15;;;;;;;1.75;1.15;;;;;;;12.99;71.99;99641.06;5043192;28;20028;-75
2023/07/22 00:38:41;;;;;;;1.90;1.13;;;;;;;13.01;71.83;99638.41;5044174;28;20025;-76
2023/07/22 00:41:07;;;;;;;5.43;1.52;;;;;;;13.01;72.05;99641.00;5044098;28;20025;-76
2023/07/22 00:43:32;;;;;;;1.65;1.00;;;;;;;13.00;72.41;99639.31;5042648;28;20035;-76
2023/07/22 00:45:58;;;;;;;1.13;0.60;;;;;;;12.99;72.44;99643.66;5026220;28;20106;-76
2023/07/22 00:48:24;;;;;;;0.65;0.65;;;;;;;12.97;72.36;99639.41;5043751;28;20052;-75
2023/07/22 00:50:49;;;;;;;2.55;0.90;;;;;;;13.00;72.41;99634.13;5043897;28;20022;-75
2023/07/22 00:53:15;;;;;;;3.90;0.90;;;;;;;13.07;72.39;99642.56;5043964;28;20017;-75
2023/07/22 00:55:41;;;;;;;2.67;1.10;;;;;;;13.01;72.34;99635.81;5043750;28;20369;-75
2023/07/22 00:58:06;;;;;;;3.38;1.17;;;;;;;13.04;72.47;99635.72;5043873;28;20108;-76
2023/07/22 01:00:32;;;;;;;1.30;1.05;;;;;;;13.09;72.28;99638.16;5042506;28;20486;-76
2023/07/22 01:02:58;;;;;;;4.82;0.82;;;;;;;13.13;72.17;99640.63;5025831;28;20045;-76
2023/07/22 01:05:26;;;;;;;0.88;0.50;;;;;;;13.12;72.15;99644.16;5043660;28;20029;-76
2023/07/22 01:07:52;;;;;;;2.25;0.88;;;;;;;13.09;72.22;99639.03;5025724;28;20029;-75
2023/07/22 01:10:18;;;;;;;6.72;1.10;;;;;;;13.10;71.81;99639.91;5042258;28;20398;-75
2023/07/22 01:12:44;;;;;;;1.20;0.85;;;;;;;13.05;71.92;99623.53;5025948;28;20032;-76
2023/07/22 01:15:10;;;;;;;0.85;0.60;;;;;;;13.01;71.96;99626.25;5043609;28;20082;-75
2023/07/22 01:17:39;;;;;;;1.92;0.80;;;;;;;13.04;71.74;99632.25;5043439;28;20068;-75
2023/07/22 01:20:05;;;;;;;2.38;0.93;;;;;;;13.02;71.86;99643.56;5026103;28;20010;-76
2023/07/22 01:22:33;;;;;;;0.98;0.88;;;;;;;12.89;71.67;99614.44;5025718;28;20033;-77
2023/07/22 01:24:59;;;;;;;2.58;1.45;;;;;;;12.96;71.84;99624.66;5043317;28;20090;-77
2023/07/22 01:27:25;;;;;;;1.50;0.88;;;;;;;12.98;71.46;99620.28;5043379;28;20039;-77
2023/07/22 01:29:51;;;;;;;1.27;0.95;;;;;;;13.02;71.59;99627.94;5043434;28;20018;-77
2023/07/22 01:32:17;;;;;;;1.17;0.60;;;;;;;13.01;71.30;99620.19;5043506;28;20026;-78
2023/07/22 01:34:43;;;;;;;2.45;0.90;;;;;;;13.04;71.24;99621.81;5043346;28;20037;-77
2023/07/22 01:37:09;;;;;;;9.05;1.20;;;;;;;13.03;71.07;99623.59;5025467;28;20024;-78
2023/07/22 01:39:35;;;;;;;1.20;0.65;;;;;;;13.03;71.44;99623.59;5042060;28;20119;-79
2023/07/22 01:42:02;;;;;;;0.65;0.60;;;;;;;12.98;71.12;99610.72;5025683;28;20033;-78
2023/07/22 01:44:27;;;;;;;5.43;1.50;;;;;;;12.97;71.43;99601.16;5042178;28;20413;-78
2023/07/22 01:46:53;;;;;;;2.90;0.82;;;;;;;13.00;71.84;99614.09;5044464;28;20025;-78
2023/07/22 01:49:18;;;;;;;3.53;0.80;;;;;;;13.02;71.71;99608.84;5029635;28;20025;-78
2023/07/22 01:51:44;;;;;;;3.40;0.95;;;;;;;13.04;71.89;99608.78;5046921;28;20097;-78
2023/07/22 01:54:10;;;;;;;2.00;0.80;;;;;;;13.08;72.07;99615.63;5046905;28;20106;-77
2023/07/22 01:56:36;;;;;;;1.95;1.20;;;;;;;13.06;72.15;99605.25;5029401;28;20021;-77
2023/07/22 01:59:01;;;;;;;1.50;0.50;;;;;;;13.15;72.05;99609.31;5046003;28;20642;-77
2023/07/22 02:01:28;;;;;;;1.13;1.00;;;;;;;13.19;71.99;99610.94;5046739;28;20029;-77
2023/07/22 02:03:53;;;;;;;1.63;0.80;;;;;;;13.17;72.13;99604.03;5047181;28;20040;-78
2023/07/22 02:06:19;;;;;;;3.80;1.17;;;;;;;13.23;72.26;99609.91;5029007;28;20021;-78
2023/07/22 02:08:45;;;;;;;1.55;0.90;;;;;;;13.27;72.38;99608.06;5029001;28;20029;-77
2023/07/22 02:11:11;;;;;;;5.90;0.90;;;;;;;13.14;72.12;99587.63;5045572;28;20022;-78
2023/07/22 02:13:36;;;;;;;0.90;0.52;;;;;;;13.36;71.96;99607.78;5028733;28;20028;-78
2023/07/22 02:16:03;;;;;;;4.05;1.00;;;;;;;13.35;72.16;99598.25;5046656;28;20029;-78
2023/07/22 02:18:28;;;;;;;1.20;0.85;;;;;;;13.42;72.18;99608.47;5046527;28;20071;-78
2023/07/22 02:20:55;;;;;;;1.08;0.70;;;;;;;13.43;71.93;99599.75;5046566;28;20025;-77
2023/07/22 02:23:22;;;;;;;2.70;1.15;;;;;;;13.48;71.92;99608.28;5044951;28;20029;-78
2023/07/22 02:25:53;;;;;;;1.27;0.70;;;;;;;13.46;71.87;99604.84;5028230;28;20524;-78
2023/07/22 02:28:21;;;;;;;1.55;1.15;;;;;;;13.49;71.93;99612.56;5046468;28;20025;-79
2023/07/22 02:30:47;;;;;;;3.38;0.88;;;;;;;13.48;71.84;99603.06;5046256;28;20033;-79
2023/07/22 02:33:13;;;;;;;6.93;1.27;;;;;;;13.56;71.85;99608.88;5046571;28;20028;-79
2023/07/22 02:35:39;;;;;;;0.50;0.47;;;;;;;13.57;71.61;99608.00;5028456;28;20029;-79
2023/07/22 02:38:04;;;;;;;1.85;0.88;;;;;;;13.63;71.25;99617.34;5046241;28;20032;-78
2023/07/22 02:40:29;;;;;;;0.40;0.40;;;;;;;13.61;71.18;99604.38;5046214;28;20071;-78
2023/07/22 02:42:55;;;;;;;1.55;0.77;;;;;;;13.61;71.43;99600.91;5028338;28;20021;-78
2023/07/22 02:45:20;;;;;;;0.43;0.43;;;;;;;13.69;71.50;99605.88;5028312;28;20028;-78
2023/07/22 02:47:45;;;;;;;0.60;0.47;;;;;;;13.67;70.91;99605.06;5044623;28;20520;-77
2023/07/22 02:50:11;;;;;;;2.05;0.65;;;;;;;13.69;70.82;99604.09;5045722;28;20091;-78
2023/07/22 02:52:36;;;;;;;4.20;0.68;;;;;;;13.65;70.58;99604.25;5045903;28;20036;-77
2023/07/22 02:55:10;;;;;;;0.40;0.40;;;;;;;13.60;70.46;99592.22;5028062;28;20048;-78
2023/07/22 02:57:37;;;;;;;3.97;0.93;;;;;;;13.65;70.49;99606.88;5045910;28;20105;-78
2023/07/22 03:00:07;;;;;;;0.60;0.50;;;;;;;13.59;70.01;99605.31;5027107;28;20021;-80
2023/07/22 03:02:35;;;;;;;6.78;0.80;;;;;;;13.63;70.12;99613.00;5027769;28;20021;-79
2023/07/22 03:05:02;;;;;;;0.57;0.50;;;;;;;13.58;69.86;99606.22;5044398;28;20025;-79
2023/07/22 03:07:28;;;;;;;0.50;0.50;;;;;;;13.62;69.81;99605.22;5045717;28;20028;-78
2023/07/22 03:09:53;;;;;;;1.30;0.55;;;;;;;13.62;69.69;99608.69;5045573;28;20077;-78
2023/07/22 03:12:19;;;;;;;1.33;1.23;;;;;;;13.61;69.44;99604.38;5045535;28;20480;-77
2023/07/22 03:14:45;;;;;;;0.47;0.40;;;;;;;13.65;69.45;99604.25;5045475;28;20516;-78
2023/07/22 03:17:12;;;;;;;0.50;0.35;;;;;;;13.71;69.08;99617.09;5045207;28;20047;-78
2023/07/22 03:19:37;;;;;;;1.35;0.60;;;;;;;13.70;68.90;99591.91;5045569;28;20032;-79
2023/07/22 03:22:03;;;;;;;4.00;0.55;;;;;;;13.70;68.85;99586.69;5044095;28;20037;-79
2023/07/22 03:24:29;;;;;;;0.73;0.73;;;;;;;13.73;68.95;99592.66;5045157;28;20071;-78
2023/07/22 03:26:54;;;;;;;0.65;0.55;;;;;;;13.80;69.04;99595.88;5045467;28;20048;-80
2023/07/22 03:29:20;;;;;;;3.67;0.60;;;;;;;13.85;68.91;99606.19;5045139;28;20032;-79
2023/07/22 03:31:45;;;;;;;2.58;0.77;;;;;;;13.92;68.86;99596.38;5045152;28;20040;-79
2023/07/22 03:34:11;;;;;;;2.25;0.50;;;;;;;13.88;69.10;99591.25;5043895;28;20081;-80
2023/07/22 03:36:36;;;;;;;1.50;0.70;;;;;;;13.95;69.29;99591.03;5045093;28;20036;-79
2023/07/22 03:39:02;;;;;;;4.70;0.65;;;;;;;13.93;69.42;99574.63;5045088;28;20061;-78
2023/07/22 03:41:28;;;;;;;0.65;0.50;;;;;;;13.98;69.03;99585.72;5027226;28;20048;-79
2023/07/22 03:43:53;;;;;;;5.10;0.68;;;;;;;13.95;69.33;99585.81;5044832;28;20474;-79
2023/07/22 03:46:19;;;;;;;1.85;0.70;;;;;;;14.02;69.27;99587.31;5045055;28;20405;-78
2023/07/22 03:48:44;;;;;;;3.90;0.95;;;;;;;14.08;69.18;99592.31;5044850;28;20417;-78
2023/07/22 03:51:10;;;;;;;0.70;0.55;;;;;;;14.19;69.61;99588.44;5045023;28;20025;-78
2023/07/22 03:53:35;;;;;;;0.50;0.50;;;;;;;14.46;69.59;99585.72;5045060;28;20052;-79
2023/07/22 03:56:00;;;;;;;1.00;0.50;;;;;;;14.84;68.79;99591.25;5044896;28;20017;-78
2023/07/22 03:58:26;;;;;;;2.25;0.85;;;;;;;15.28;69.05;99586.06;5044733;28;20021;-79
2023/07/22 04:00:51;;;;;;;19.85;1.15;;;;;;;15.76;67.67;99584.06;5044859;28;20047;-79
2023/07/22 04:03:17;;;;;;;0.32;0.32;;;;;;;16.27;67.42;99590.59;5044651;28;20052;-79
2023/07/22 04:05:42;;;;;;;2.20;0.60;;;;;;;16.67;65.65;99580.06;5045033;28;20036;-78
2023/07/22 04:08:08;;;;;;;0.57;0.57;;;;;;;17.07;64.81;99593.88;5026643;28;20540;-78
2023/07/22 04:10:33;;;;;;;1.75;0.68;;;;;;;17.30;64.30;99588.47;5043153;28;20056;-78
2023/07/22 04:12:58;;;;;;;0.70;0.40;;;;;;;17.58;64.21;99587.91;5043307;28;20083;-79
2023/07/22 04:15:24;;;;;;;0.55;0.40;;;;;;;17.89;60.58;99582.00;5044516;28;20040;-78
2023/07/22 04:17:50;;;;;;;0.63;0.50;;;;;;;18.11;59.24;99572.97;5044145;28;20204;-78
2023/07/22 04:20:15;;;;;;;1.20;0.93;;;;;;;18.23;58.27;99580.22;5044557;28;20036;-78
2023/07/22 04:22:41;;;;;;;1.20;0.60;;;;;;;17.98;57.08;99564.91;5044314;28;20052;-78
2023/07/22 04:25:07;;;;;;;3.55;0.70;;;;;;;17.96;57.73;99573.72;5042828;28;20068;-78
2023/07/22 04:27:33;;;;;;;0.65;0.50;;;;;;;18.17;58.06;99583.19;5044175;28;20029;-77
2023/07/22 04:29:58;;;;;;;2.08;0.68;;;;;;;18.45;57.79;99576.44;5044354;28;20058;-78
2023/07/22 04:32:23;;;;;;;0.30;0.25;;;;;;;18.62;58.17;99580.78;5042538;28;20504;-78
2023/07/22 04:34:49;;;;;;;0.50;0.40;;;;;;;18.69;57.45;99581.28;5044106;28;20254;-76
2023/07/22 04:37:16;;;;;;;8.20;0.82;;;;;;;18.53;56.39;99583.91;5044199;28;20021;-77
2023/07/22 04:39:42;;;;;;;0.60;0.35;;;;;;;18.44;57.77;99580.84;5042834;28;20089;-77
2023/07/22 04:42:08;;;;;;;2.05;0.80;;;;;;;18.68;57.71;99575.16;5043883;28;20068;-77
2023/07/22 04:44:33;;;;;;;1.10;0.70;;;;;;;19.05;56.45;99584.53;5043927;28;20135;-77
2023/07/22 04:46:58;;;;;;;1.17;0.93;;;;;;;19.20;55.05;99591.56;5043941;28;20026;-75
2023/07/22 04:49:25;;;;;;;2.15;0.60;;;;;;;18.98;54.02;99572.69;5044269;28;20104;-77
2023/07/22 04:51:50;;;;;;;0.45;0.43;;;;;;;18.74;53.99;99591.53;5043995;28;20060;-78
2023/07/22 04:54:16;;;;;;;0.32;0.30;;;;;;;18.36;54.44;99590.06;5042782;28;20030;-77
2023/07/22 04:56:42;;;;;;;1.48;0.65;;;;;;;18.00;54.52;99595.41;5044014;28;20036;-77
2023/07/22 04:59:08;;;;;;;0.38;0.32;;;;;;;17.54;55.06;99591.59;5043970;28;20017;-77
2023/07/22 05:01:33;;;;;;;0.70;0.60;;;;;;;17.21;56.01;99595.84;5043650;28;20073;-77
2023/07/22 05:03:58;;;;;;;2.67;0.50;;;;;;;17.02;57.36;99602.88;5043820;28;20029;-78
2023/07/22 05:06:24;;;;;;;1.38;0.60;;;;;;;17.07;57.25;99603.50;5043641;28;20048;-78
2023/07/22 05:08:50;;;;;;;0.35;0.35;;;;;;;16.95;57.04;99603.16;5043991;28;20028;-78
2023/07/22 05:11:16;;;;;;;1.90;0.55;;;;;;;16.85;57.35;99612.41;5025699;28;20026;-77
2023/07/22 05:13:42;;;;;;;1.05;0.60;;;;;;;16.76;57.95;99602.38;5025807;28;20049;-77
2023/07/22 05:16:07;;;;;;;1.00;0.75;;;;;;;16.80;58.59;99604.78;5043561;28;20025;-77
2023/07/22 05:18:33;;;;;;;2.00;0.82;;;;;;;17.13;58.69;99605.00;5043344;28;20053;-77
2023/07/22 05:20:58;;;;;;;1.58;0.88;;;;;;;17.38;57.70;99595.94;5025814;28;20017;-76
2023/07/22 05:23:24;;;;;;;1.08;0.60;;;;;;;17.31;56.73;99604.13;5045899;28;20026;-77
2023/07/22 05:25:53;;;;;;;3.70;0.68;;;;;;;17.15;57.67;99596.16;5047495;28;20120;-76
2023/07/22 05:28:18;;;;;;;3.80;0.52;;;;;;;17.16;57.75;99604.84;5029629;28;20022;-76
2023/07/22 05:30:44;;;;;;;0.30;0.30;;;;;;;17.12;58.06;99608.56;5029498;28;20173;-77
2023/07/22 05:33:09;;;;;;;2.50;0.75;;;;;;;17.26;58.08;99600.00;5029388;28;20025;-77
2023/07/22 05:35:35;;;;;;;1.50;0.57;;;;;;;17.44;58.41;99606.13;5047328;28;20056;-77
2023/07/22 05:38:03;;;;;;;1.08;0.88;;;;;;;17.66;57.87;99605.03;5047488;28;20091;-78
2023/07/22 05:40:29;;;;;;;0.52;0.38;;;;;;;17.86;56.99;99605.78;5047285;28;20351;-77
2023/07/22 05:42:54;;;;;;;2.67;0.80;;;;;;;18.48;57.66;99607.81;5046144;28;20032;-77
2023/07/22 05:45:20;;;;;;;1.65;0.90;;;;;;;19.49;55.38;99603.97;5047177;28;20085;-77
2023/07/22 05:47:45;;;;;;;0.90;0.60;;;;;;;20.80;54.67;99597.81;5047039;28;20036;-77
2023/07/22 05:50:10;;;;;;;0.45;0.32;;;;;;;22.07;51.39;99603.59;5029516;28;20032;-75
2023/07/22 05:52:36;;;;;;;0.50;0.45;;;;;;;22.66;47.95;99598.63;5047146;28;20033;-74
2023/07/22 05:55:02;;;;;;;0.93;0.60;;;;;;;22.43;47.14;99601.09;5047010;28;20104;-74
2023/07/22 05:57:27;;;;;;;0.60;0.50;;;;;;;21.87;47.06;99599.72;5046905;28;20021;-73
2023/07/22 05:59:52;;;;;;;0.63;0.40;;;;;;;21.24;47.23;99609.09;5045734;28;20116;-73
2023/07/22 06:02:18;;;;;;;1.35;0.60;;;;;;;20.50;47.32;99607.59;5046749;28;20086;-73
2023/07/22 06:04:44;;;;;;;4.93;0.70;;;;;;;19.77;48.47;99612.88;5045453;28;20418;-74
2023/07/22 06:07:09;;;;;;;4.57;0.60;;;;;;;19.49;50.03;99618.94;5046773;28;20029;-73
2023/07/22 06:09:35;;;;;;;0.30;0.30;;;;;;;19.25;50.03;99607.09;5046885;28;20025;-74
2023/07/22 06:12:00;;;;;;;1.38;0.60;;;;;;;18.91;50.43;99609.81;5028792;28;20022;-73
2023/07/22 06:14:27;;;;;;;0.45;0.35;;;;;;;18.70;50.74;99609.25;5046730;28;20025;-73
2023/07/22 06:16:53;;;;;;;0.85;0.68;;;;;;;18.63;51.96;99610.50;5046325;28;20108;-75
2023/07/22 06:19:18;;;;;;;0.93;0.55;;;;;;;18.91;52.21;99609.81;5028859;28;20492;-74
2023/07/22 06:21:44;;;;;;;0.95;0.50;;;;;;;19.37;52.18;99604.69;5046548;28;20052;-74
2023/07/22 06:24:10;;;;;;;1.35;0.47;;;;;;;19.85;50.83;99608.91;5028763;28;20025;-74
2023/07/22 06:26:35;;;;;;;1.45;0.60;;;;;;;19.75;49.43;99613.88;5046311;28;20041;-73
2023/07/22 06:29:00;;;;;;;3.65;0.80;;;;;;;19.46;49.60;99613.84;5046395;28;20024;-74
2023/07/22 06:31:30;;;;;;;1.20;0.63;;;;;;;19.06;49.92;99613.38;5046205;28;20556;-74
2023/07/22 06:33:56;;;;;;;1.00;0.43;;;;;;;18.51;50.43;99623.41;5045035;28;20036;-74
2023/07/22 06:36:22;;;;;;;0.63;0.52;;;;;;;18.07;51.69;99623.03;5046218;28;20021;-74
2023/07/22 06:38:47;;;;;;;0.68;0.68;;;;;;;17.66;52.67;99612.91;5044891;28;20029;-74
2023/07/22 06:41:13;;;;;;;1.77;0.70;;;;;;;17.33;54.48;99618.00;5046360;28;20017;-74
2023/07/22 06:43:38;;;;;;;0.70;0.50;;;;;;;16.87;54.89;99612.34;5046233;28;20026;-74
2023/07/22 06:46:03;;;;;;;3.00;0.90;;;;;;;16.56;55.34;99623.34;5045017;28;20037;-73
2023/07/22 06:48:29;;;;;;;1.25;0.60;;;;;;;16.25;56.16;99622.09;5045794;28;20089;-74
2023/07/22 06:50:54;;;;;;;1.85;1.17;;;;;;;15.94;57.38;99626.06;5045964;28;20476;-73
2023/07/22 06:53:21;;;;;;;1.05;0.60;;;;;;;15.59;57.48;99609.16;5045970;28;20017;-73
2023/07/22 06:55:53;;;;;;;0.70;0.65;;;;;;;15.54;58.13;99618.13;5044501;28;20032;-74
2023/07/22 06:58:20;;;;;;;1.08;0.75;;;;;;;15.41;58.65;99623.88;5045920;28;20048;-74
2023/07/22 07:00:45;;;;;;;0.50;0.50;;;;;;;15.28;59.22;99615.69;5044162;28;20030;-74
2023/07/22 07:03:11;;;;;;;2.42;0.70;;;;;;;15.35;59.74;99621.53;5045562;28;20024;-74
2023/07/22 07:05:36;;;;;;;0.60;0.50;;;;;;;15.84;60.64;99621.22;5045691;28;20489;-74
2023/07/22 07:08:02;;;;;;;0.70;0.55;;;;;;;16.94;59.54;99618.97;5045758;28;20060;-73
2023/07/22 07:10:27;;;;;;;0.95;0.55;;;;;;;17.51;56.78;99606.69;5045349;28;20022;-74
2023/07/22 07:12:53;;;;;;;4.25;0.68;;;;;;;17.70;54.85;99614.44;5045524;28;20018;-73
2023/07/22 07:15:18;;;;;;;1.02;0.55;;;;;;;17.46;53.42;99620.00;5044102;28;20017;-73
2023/07/22 07:17:43;;;;;;;0.43;0.43;;;;;;;17.11;54.09;99618.19;5027649;28;20393;-74
2023/07/22 07:20:09;;;;;;;0.55;0.43;;;;;;;16.93;54.76;99625.97;5045566;28;20101;-73
2023/07/22 07:22:35;;;;;;;0.52;0.40;;;;;;;16.74;55.06;99618.16;5045401;28;20055;-73
2023/07/22 07:25:00;;;;;;;0.93;0.70;;;;;;;16.62;55.68;99634.44;5045246;28;20049;-74
2023/07/22 07:27:27;;;;;;;0.35;0.30;;;;;;;16.50;55.87;99631.50;5045340;28;20458;-72
2023/07/22 07:29:53;;;;;;;1.13;0.70;;;;;;;16.37;56.24;99625.09;5045075;28;20033;-74
2023/07/22 07:32:18;;;;;;;0.45;0.38;;;;;;;16.56;56.71;99633.81;5044970;28;20024;-76
2023/07/22 07:34:44;;;;;;;0.98;0.52;;;;;;;16.97;56.27;99638.03;5044770;28;20025;-68
2023/07/22 07:37:09;;;;;;;0.50;0.50;;;;;;;17.14;55.48;99628.53;5045294;28;20021;-64
2023/07/22 07:39:34;;;;;;;1.13;0.60;;;;;;;17.20;54.40;99630.03;5045281;28;20025;-69
2023/07/22 07:42:00;;;;;;;0.60;0.47;;;;;;;17.10;54.83;99629.63;5045031;28;20025;-72
2023/07/22 07:44:25;;;;;;;1.25;0.80;;;;;;;17.01;54.93;99622.16;5044534;28;20025;-76
2023/07/22 07:46:50;;;;;;;3.45;0.80;;;;;;;17.39;55.70;99623.88;5044847;28;20060;-75
2023/07/22 07:49:16;;;;;;;0.77;0.60;;;;;;;18.20;54.26;99631.16;5027060;28;20607;-75
2023/07/22 07:51:42;;;;;;;3.58;1.70;;;;;;;19.16;52.73;99631.28;5045107;28;20038;-75
2023/07/22 07:54:08;;;;;;;1.48;0.47;;;;;;;20.04;50.70;99629.75;5043615;28;20017;-76
2023/07/22 07:56:33;;;;;;;1.00;0.55;;;;;;;20.50;49.28;99619.94;5043246;28;20245;-75
2023/07/22 07:58:59;;;;;;;3.08;0.80;;;;;;;20.34;48.04;99633.22;5043478;28;20359;-73
2023/07/22 08:01:24;;;;;;;0.80;0.47;;;;;;;19.91;47.74;99634.88;5044702;28;20032;-75
2023/07/22 08:03:52;;;;;;;4.55;0.70;;;;;;;19.50;48.32;99636.41;5043284;28;20052;-74
2023/07/22 08:06:18;;;;;;;1.42;0.50;;;;;;;18.98;49.01;99634.00;5043130;28;20044;-74
2023/07/22 08:08:43;;;;;;;0.90;0.52;;;;;;;18.69;49.96;99641.75;5044521;28;20108;-74
2023/07/22 08:11:10;;;;;;;1.27;0.43;;;;;;;18.82;50.59;99628.75;5044397;28;20051;-75
2023/07/22 08:13:37;;;;;;;0.30;0.30;;;;;;;19.42;49.47;99637.72;5044665;28;20097;-74
2023/07/22 08:16:08;;;;;;;1.08;0.82;;;;;;;20.04;48.57;99633.25;5042889;28;20044;-74
2023/07/22 08:18:34;;;;;;;1.20;0.60;;;;;;;20.78;47.37;99624.28;5044095;28;20029;-74
2023/07/22 08:21:02;;;;;;;1.25;0.60;;;;;;;21.78;45.88;99627.59;5044346;28;20026;-74
2023/07/22 08:23:28;;;;;;;0.30;0.30;;;;;;;22.74;44.45;99629.81;5042974;28;20025;-74
2023/07/22 08:25:53;;;;;;;1.30;0.45;;;;;;;22.51;40.94;99621.69;5022926;28;20061;-74
2023/07/22 08:28:18;;;;;;;0.30;0.30;;;;;;;21.76;41.66;99640.88;5024308;28;20025;-74
2023/07/22 08:30:44;;;;;;;0.55;0.50;;;;;;;21.50;43.04;99624.97;5039581;28;20064;-74
2023/07/22 08:33:13;;;;;;;1.80;0.32;;;;;;;22.26;43.71;99626.94;5024310;28;20059;-74
2023/07/22 08:35:42;;;;;;;0.47;0.43;;;;;;;23.10;41.29;99630.72;5024155;28;20076;-70
2023/07/22 08:38:10;;;;;;;4.40;0.40;;;;;;;22.91;40.80;99641.81;5024210;28;20049;-71
2023/07/22 08:40:38;;;;;;;0.50;0.40;;;;;;;22.86;40.99;99638.69;5024134;28;20569;-70
2023/07/22 08:43:05;;;;;;;1.08;0.60;;;;;;;23.00;40.23;99648.25;5024102;28;20034;-70
2023/07/22 08:45:36;;;;;;;0.20;0.20;;;;;;;22.25;40.16;99650.84;5024116;28;20131;-66
2023/07/22 08:48:09;;;;;;;5.47;0.68;;;;;;;22.60;41.38;99642.25;5024227;28;20089;-68
2023/07/22 08:50:42;;;;;;;3.63;0.40;;;;;;;23.03;39.93;99640.91;5024114;28;20321;-70
2023/07/22 08:53:08;;;;;;;0.30;0.30;;;;;;;23.18;40.17;99646.03;5024016;28;20018;-67
2023/07/22 08:55:34;;;;;;;0.20;0.20;;;;;;;22.93;39.72;99649.63;5039040;28;20399;-65
2023/07/22 08:58:00;;;;;;;0.93;0.52;;;;;;;22.75;39.72;99660.59;5021869;28;20072;-65
2023/07/22 09:00:26;;;;;;;0.55;0.40;;;;;;;22.51;40.09;99661.38;5023900;28;20018;-70
2023/07/22 09:02:53;;;;;;;0.50;0.30;;;;;;;22.52;39.54;99663.91;5023908;28;20021;-79
2023/07/22 09:05:18;;;;;;;0.45;0.35;;;;;;;23.11;38.98;99658.91;5024052;28;20029;-65
2023/07/22 09:07:44;;;;;;;1.52;0.40;;;;;;;23.96;38.02;99661.47;5023960;28;20026;-68
2023/07/22 09:10:09;;;;;;;0.40;0.25;;;;;;;23.48;36.11;99650.03;5023661;28;20026;-75
2023/07/22 09:12:39;;;;;;;1.08;0.75;;;;;;;23.01;37.10;99652.56;5038435;28;20026;-77
2023/07/22 09:15:10;;;;;;;0.30;0.25;;;;;;;23.02;37.93;99659.56;5038980;28;20387;-75
2023/07/22 09:17:36;;;;;;;0.20;0.20;;;;;;;22.64;37.60;99650.78;5023895;28;20053;-78
2023/07/22 09:20:03;;;;;;;0.70;0.35;;;;;;;22.38;38.25;99650.84;5023924;28;20022;-79
2023/07/22 09:22:28;;;;;;;0.20;0.20;;;;;;;22.65;38.60;99665.72;5022345;28;20438;-75
2023/07/22 09:25:14;;;;;;;4.43;0.50;;;;;;;23.19;37.90;99649.53;5028050;28;20105;-76
2023/07/22 09:27:39;;;;;;;0.30;0.30;;;;;;;23.54;38.02;99658.47;5025618;28;20175;-75
2023/07/22 09:30:20;;;;;;;0.43;0.40;;;;;;;24.07;36.68;99651.84;5043219;28;20430;-74
2023/07/22 09:32:46;;;;;;;0.22;0.22;;;;;;;24.70;37.31;99653.16;5043303;28;20055;-76
2023/07/22 09:35:11;;;;;;;1.35;0.38;;;;;;;25.64;35.89;99643.81;5043378;28;20026;-75
2023/07/22 09:37:38;;;;;;;0.93;0.50;;;;;;;25.73;35.19;99651.03;5043392;28;20018;-75
2023/07/22 09:40:27;;;;;;;0.20;0.20;;;;;;;24.73;35.06;99653.75;5043232;28;20028;-76
2023/07/22 09:42:54;;;;;;;0.35;0.30;;;;;;;24.78;36.47;99655.22;5025527;28;20032;-73
2023/07/22 09:45:22;;;;;;;0.65;0.43;;;;;;;24.65;35.99;99650.88;5041733;28;20033;-70
2023/07/22 09:47:49;;;;;;;0.63;0.50;;;;;;;24.22;35.44;99653.31;5025267;28;20025;-72
2023/07/22 09:50:17;;;;;;;0.70;0.50;;;;;;;23.19;36.80;99655.69;5042955;28;20494;-72
2023/07/22 09:52:49;;;;;;;0.30;0.28;;;;;;;22.18;37.70;99666.28;5025233;28;20128;-72
2023/07/22 09:55:16;;;;;;;;;;;;;;;21.26;39.43;99664.44;5043491;28;20030;-72
2023/07/22 09:57:45;;;;;;;0.75;0.55;;;;;;;20.40;41.02;99667.97;5042959;28;19909;-75
2023/07/22 10:00:14;;;;;;;1.27;0.45;;;;;;;19.76;42.70;99658.56;5043067;28;20028;-74
2023/07/22 10:02:42;;;;;;;1.38;0.40;;;;;;;19.45;44.06;99660.34;5042782;28;20025;-70
2023/07/22 10:05:14;;;;;;;0.35;0.30;;;;;;;19.14;45.12;99667.34;5041609;28;20512;-72
2023/07/22 10:07:44;;;;;;;0.30;0.30;;;;;;;18.80;46.81;99672.72;5043715;28;20025;-74
2023/07/22 10:10:11;;;;;;;0.73;0.43;;;;;;;18.57;48.04;99674.78;5046636;28;20029;-75
2023/07/22 10:12:40;;;;;;;2.58;0.52;;;;;;;18.45;48.65;99676.31;5046662;28;20410;-74
2023/07/22 10:15:07;;;;;;;0.60;0.40;;;;;;;18.52;48.37;99669.78;5028727;28;20051;-74
2023/07/22 10:17:33;;;;;;;1.83;0.50;;;;;;;18.48;48.84;99675.28;5046009;28;20025;-71
2023/07/22 10:19:59;;;;;;;0.40;0.40;;;;;;;18.30;48.81;99681.44;5046574;28;20032;-73
2023/07/22 10:22:24;;;;;;;1.58;0.55;;;;;;;18.12;49.90;99679.75;5046564;28;20022;-72
2023/07/22 10:24:52;;;;;;;0.50;0.47;;;;;;;18.43;50.32;99683.41;5046153;28;20103;-72
2023/07/22 10:27:17;;;;;;;0.85;0.50;;;;;;;19.52;49.00;99682.75;5046338;28;20032;-73
2023/07/22 10:29:46;;;;;;;0.85;0.43;;;;;;;19.91;47.41;99683.16;5046448;28;20026;-74
2023/07/22 10:32:11;;;;;;;1.25;0.43;;;;;;;20.25;47.33;99685.59;5044854;28;20044;-72
2023/07/22 10:34:36;;;;;;;1.00;0.57;;;;;;;20.66;45.78;99672.56;5046028;28;20013;-68
2023/07/22 10:37:04;;;;;;;0.40;0.30;;;;;;;20.67;45.88;99669.00;5045646;28;20025;-71
2023/07/22 10:39:29;;;;;;;0.47;0.47;;;;;;;20.95;45.43;99671.69;5045609;28;20021;-70
2023/07/22 10:42:04;;;;;;;1.00;0.50;;;;;;;20.84;44.45;99680.25;5027916;28;20028;-72
2023/07/22 10:44:32;;;;;;;0.30;0.30;;;;;;;20.55;44.92;99691.69;5046122;28;20385;-71
2023/07/22 10:46:58;;;;;;;0.22;0.20;;;;;;;20.24;44.24;99689.13;5045491;28;20030;-73
2023/07/22 10:49:41;;;;;;;1.90;0.70;;;;;;;19.97;45.13;99694.25;5046044;28;20021;-72
2023/07/22 10:52:14;;;;;;;0.80;0.40;;;;;;;19.63;46.05;99683.94;5045779;28;20095;-72
2023/07/22 10:54:39;;;;;;;1.27;0.60;;;;;;;19.51;46.78;99693.38;5027805;28;20036;-73
2023/07/22 10:57:14;;;;;;;3.45;0.60;;;;;;;19.46;47.06;99693.63;5044587;28;20018;-73
2023/07/22 10:59:49;;;;;;;0.77;0.50;;;;;;;20.13;45.99;99683.66;5045736;28;20325;-70
2023/07/22 11:02:32;;;;;;;1.13;0.40;;;;;;;20.16;45.51;99699.31;5045340;28;20251;-73
2023/07/22 11:04:59;;;;;;;0.98;0.60;;;;;;;19.75;46.53;99696.38;5044978;28;20029;-72
2023/07/22 11:07:33;;;;;;;2.05;0.50;;;;;;;19.78;46.47;99701.44;5045492;28;20032;-72
2023/07/22 11:10:15;;;;;;;1.80;0.40;;;;;;;19.76;46.22;99697.22;5044181;28;20437;-73
2023/07/22 11:12:44;;;;;;;0.98;0.60;;;;;;;19.73;46.04;99695.59;5046014;28;20029;-71
2023/07/22 11:15:09;;;;;;;0.63;0.40;;;;;;;19.81;46.36;99693.38;5045473;28;20493;-71
2023/07/22 11:17:35;;;;;;;1.27;0.50;;;;;;;19.98;46.30;99686.28;5045237;28;20092;-73
2023/07/22 11:20:01;;;;;;;1.75;0.60;;;;;;;19.96;45.19;99690.78;5044675;28;20028;-71
2023/07/22 11:22:30;;;;;;;1.55;0.93;;;;;;;19.92;45.87;99691.91;5045211;28;20029;-72
2023/07/22 11:24:58;;;;;;;0.85;0.75;;;;;;;19.82;45.77;99687.16;5045047;28;20061;-73
2023/07/22 11:27:23;;;;;;;2.63;0.80;;;;;;;19.61;46.18;99697.19;5044646;28;20109;-72
2023/07/22 11:29:49;;;;;;;0.77;0.60;;;;;;;19.48;46.54;99689.13;5045175;28;20025;-71
2023/07/22 11:32:21;;;;;;;0.50;0.50;;;;;;;19.42;46.88;99695.63;5045175;28;20068;-72